PAGY/SGY METAR and TAF weather

Enter ICAO airport designator
Station Type Date Time Source
PAGY METAR 2021/05/12 00:53 UTC NOAA

PAGY 120053Z AUTO 21017KT 10SM SCT070 11/00 A3017 RMK AO2 SLP215 T01060000 TSNO


Station Type Date Time Source
PAGY Decoded METAR 2021/05/12 00:53 UTC NOAA

SKAGWAY AIRPORT, AK, United States (PAGY) 59-28N 135-19W 5M
May 11, 2021 - 08:53 PM EDT / 2021.05.12 0053 UTC
Wind: from the SSW (210 degrees) at 20 MPH (17 KT):0
Visibility: 10 mile(s):0
Sky conditions: partly cloudy
Temperature: 51.1 F (10.6 C)
Dew Point: 32.0 F (0.0 C)
Relative Humidity: 47%
Pressure (altimeter): 30.17 in. Hg (1021 hPa)
ob: PAGY 120053Z AUTO 21017KT 10SM SCT070 11/00 A3017 RMK AO2 SLP215 T01060000 TSNO
cycle: 1

Station Type Date Time Source
PAGY TAF 2021/05/11 18:22 UTC NOAA

TAF PAGY 111720Z 1118/1218 21015KT P6SM VCSH OVC050
TEMPO 1120/1124 21015G25KT
AMD LTD TO CLD VIS AND WIND

Example: see airport list